Webcam

2020/06/06 19:20 EBBR 061920Z 24012KT CAVOK 13/03 Q1002 NOSIG

Webcam

--- Refresh now ---